sensor_id;sensor_type;location;lat;lon;timestamp;pressure;altitude;pressure_sealevel;temperature;humidity
55022;BME280;68328;35.990;-86.756;2023-09-30T10:00:41;99427.69;;;28.61;35.31
55022;BME280;68328;35.990;-86.756;2023-09-30T10:03:05;99431.13;;;27.39;36.86
55022;BME280;68328;35.990;-86.756;2023-09-30T10:05:30;99432.20;;;26.25;38.31
55022;BME280;68328;35.990;-86.756;2023-09-30T10:08:00;99433.24;;;26.07;39.45
55022;BME280;68328;35.990;-86.756;2023-09-30T10:10:23;99430.86;;;25.56;40.47
55022;BME280;68328;35.990;-86.756;2023-09-30T10:12:47;99427.48;;;25.26;41.25
55022;BME280;68328;35.990;-86.756;2023-09-30T10:20:06;99435.71;;;25.19;42.14
55022;BME280;68328;35.990;-86.756;2023-09-30T10:22:28;99439.70;;;24.95;42.38
55022;BME280;68328;35.990;-86.756;2023-09-30T10:24:55;99442.17;;;25.18;42.19
55022;BME280;68328;35.990;-86.756;2023-09-30T10:27:29;99444.96;;;24.95;42.04
55022;BME280;68328;35.990;-86.756;2023-09-30T10:29:45;99450.16;;;24.84;42.33
55022;BME280;68328;35.990;-86.756;2023-09-30T10:32:11;99452.19;;;24.48;42.53
55022;BME280;68328;35.990;-86.756;2023-09-30T10:34:36;99454.40;;;24.23;42.57
55022;BME280;68328;35.990;-86.756;2023-09-30T10:41:52;99460.63;;;24.21;43.05
55022;BME280;68328;35.990;-86.756;2023-09-30T10:44:32;99464.18;;;24.53;42.90
55022;BME280;68328;35.990;-86.756;2023-09-30T10:46:42;99470.23;;;24.56;42.74
55022;BME280;68328;35.990;-86.756;2023-09-30T10:51:38;99477.42;;;24.57;42.65
55022;BME280;68328;35.990;-86.756;2023-09-30T10:53:59;99478.73;;;24.44;43.10
55022;BME280;68328;35.990;-86.756;2023-09-30T10:56:31;99477.15;;;24.46;43.20
55022;BME280;68328;35.990;-86.756;2023-09-30T10:58:51;99481.50;;;24.08;43.50
55022;BME280;68328;35.990;-86.756;2023-09-30T11:01:17;99485.61;;;24.02;43.66
55022;BME280;68328;35.990;-86.756;2023-09-30T11:03:42;99489.52;;;23.88;43.81
55022;BME280;68328;35.990;-86.756;2023-09-30T11:06:07;99494.03;;;24.41;43.30
55022;BME280;68328;35.990;-86.756;2023-09-30T11:08:33;99495.25;;;24.05;43.40
55022;BME280;68328;35.990;-86.756;2023-09-30T11:10:58;99499.60;;;24.15;43.39
55022;BME280;68328;35.990;-86.756;2023-09-30T11:13:31;99503.13;;;24.04;43.17
55022;BME280;68328;35.990;-86.756;2023-09-30T11:18:16;99511.99;;;23.91;43.72
55022;BME280;68328;35.990;-86.756;2023-09-30T11:20:40;99513.73;;;24.08;43.28
55022;BME280;68328;35.990;-86.756;2023-09-30T11:23:05;99516.84;;;23.99;43.32
55022;BME280;68328;35.990;-86.756;2023-09-30T11:25:36;99520.80;;;24.12;43.52
55022;BME280;68328;35.990;-86.756;2023-09-30T11:30:22;99518.91;;;24.26;43.35
55022;BME280;68328;35.990;-86.756;2023-09-30T11:32:47;99523.12;;;23.99;43.40
55022;BME280;68328;35.990;-86.756;2023-09-30T11:35:22;99526.25;;;23.80;43.50
55022;BME280;68328;35.990;-86.756;2023-09-30T11:37:41;99528.54;;;24.13;43.45
55022;BME280;68328;35.990;-86.756;2023-09-30T11:40:12;99528.10;;;23.83;43.63
55022;BME280;68328;35.990;-86.756;2023-09-30T11:42:30;99526.68;;;23.48;43.53
55022;BME280;68328;35.990;-86.756;2023-09-30T11:44:55;99527.94;;;24.06;43.71
55022;BME280;68328;35.990;-86.756;2023-09-30T11:47:29;99528.67;;;23.80;43.80
55022;BME280;68328;35.990;-86.756;2023-09-30T11:49:52;99534.64;;;24.12;43.58
55022;BME280;68328;35.990;-86.756;2023-09-30T11:52:14;99539.04;;;24.35;43.23
55022;BME280;68328;35.990;-86.756;2023-09-30T11:54:39;99541.31;;;24.23;43.06
55022;BME280;68328;35.990;-86.756;2023-09-30T11:57:03;99540.57;;;24.17;43.30
55022;BME280;68328;35.990;-86.756;2023-09-30T11:59:29;99543.08;;;24.03;42.93
55022;BME280;68328;35.990;-86.756;2023-09-30T12:01:54;99544.02;;;24.17;43.02
55022;BME280;68328;35.990;-86.756;2023-09-30T12:04:19;99548.49;;;24.25;42.92
55022;BME280;68328;35.990;-86.756;2023-09-30T12:06:45;99553.08;;;24.30;43.09
55022;BME280;68328;35.990;-86.756;2023-09-30T12:09:11;99557.87;;;24.37;42.53
55022;BME280;68328;35.990;-86.756;2023-09-30T12:11:36;99563.91;;;24.00;42.74
55022;BME280;68328;35.990;-86.756;2023-09-30T12:14:00;99562.10;;;24.04;43.13
55022;BME280;68328;35.990;-86.756;2023-09-30T12:16:26;99570.98;;;24.04;43.48
55022;BME280;68328;35.990;-86.756;2023-09-30T12:18:51;99568.70;;;24.37;43.20
55022;BME280;68328;35.990;-86.756;2023-09-30T12:21:17;99569.82;;;24.27;43.51
55022;BME280;68328;35.990;-86.756;2023-09-30T12:23:43;99569.71;;;24.17;42.95
55022;BME280;68328;35.990;-86.756;2023-09-30T12:26:08;99568.70;;;24.12;43.30
55022;BME280;68328;35.990;-86.756;2023-09-30T12:28:34;99571.00;;;24.29;43.49
55022;BME280;68328;35.990;-86.756;2023-09-30T12:31:00;99575.36;;;24.39;43.45
55022;BME280;68328;35.990;-86.756;2023-09-30T12:33:25;99576.78;;;24.45;43.44
55022;BME280;68328;35.990;-86.756;2023-09-30T12:35:50;99576.27;;;24.46;43.42
55022;BME280;68328;35.990;-86.756;2023-09-30T12:38:15;99578.34;;;24.38;43.26
55022;BME280;68328;35.990;-86.756;2023-09-30T12:40:41;99577.00;;;24.68;43.28
55022;BME280;68328;35.990;-86.756;2023-09-30T12:43:06;99579.86;;;24.81;43.45
55022;BME280;68328;35.990;-86.756;2023-09-30T12:45:32;99578.41;;;24.86;43.62
55022;BME280;68328;35.990;-86.756;2023-09-30T12:47:58;99578.94;;;24.63;43.61
55022;BME280;68328;35.990;-86.756;2023-09-30T12:50:23;99582.08;;;24.69;43.83
55022;BME280;68328;35.990;-86.756;2023-09-30T12:52:48;99582.86;;;25.00;44.10
55022;BME280;68328;35.990;-86.756;2023-09-30T12:55:13;99586.63;;;25.01;44.32
55022;BME280;68328;35.990;-86.756;2023-09-30T12:57:39;99589.92;;;24.68;44.35
55022;BME280;68328;35.990;-86.756;2023-09-30T13:00:05;99589.25;;;25.11;44.19
55022;BME280;68328;35.990;-86.756;2023-09-30T13:02:30;99588.16;;;25.22;44.34
55022;BME280;68328;35.990;-86.756;2023-09-30T13:04:56;99589.47;;;25.18;44.30
55022;BME280;68328;35.990;-86.756;2023-09-30T13:07:20;99592.86;;;25.57;44.28
55022;BME280;68328;35.990;-86.756;2023-09-30T13:09:45;99597.24;;;25.47;44.50
55022;BME280;68328;35.990;-86.756;2023-09-30T13:12:11;99599.99;;;25.48;45.18
55022;BME280;68328;35.990;-86.756;2023-09-30T13:14:37;99602.50;;;25.68;44.92
55022;BME280;68328;35.990;-86.756;2023-09-30T13:17:02;99609.03;;;25.88;44.67
55022;BME280;68328;35.990;-86.756;2023-09-30T13:19:27;99613.67;;;25.81;44.75
55022;BME280;68328;35.990;-86.756;2023-09-30T13:21:52;99617.32;;;25.79;45.04
55022;BME280;68328;35.990;-86.756;2023-09-30T13:24:19;99612.72;;;25.89;44.88
55022;BME280;68328;35.990;-86.756;2023-09-30T13:26:45;99613.51;;;26.00;44.73
55022;BME280;68328;35.990;-86.756;2023-09-30T13:29:10;99612.52;;;25.92;44.63
55022;BME280;68328;35.990;-86.756;2023-09-30T13:31:35;99615.80;;;26.22;44.08
55022;BME280;68328;35.990;-86.756;2023-09-30T13:34:00;99618.77;;;26.75;44.32
55022;BME280;68328;35.990;-86.756;2023-09-30T13:36:27;99624.40;;;26.45;44.04
55022;BME280;68328;35.990;-86.756;2023-09-30T13:38:52;99624.57;;;26.88;44.24
55022;BME280;68328;35.990;-86.756;2023-09-30T13:41:18;99628.93;;;26.73;44.28
55022;BME280;68328;35.990;-86.756;2023-09-30T13:43:43;99631.86;;;26.79;43.70
55022;BME280;68328;35.990;-86.756;2023-09-30T13:46:09;99627.91;;;26.69;43.94
55022;BME280;68328;35.990;-86.756;2023-09-30T13:48:35;99627.60;;;26.87;43.58
55022;BME280;68328;35.990;-86.756;2023-09-30T13:51:05;99627.16;;;26.95;43.46
55022;BME280;68328;35.990;-86.756;2023-09-30T13:53:26;99627.54;;;26.97;44.05
55022;BME280;68328;35.990;-86.756;2023-09-30T13:55:51;99627.01;;;26.80;44.01
55022;BME280;68328;35.990;-86.756;2023-09-30T13:58:18;99629.49;;;27.21;43.51
55022;BME280;68328;35.990;-86.756;2023-09-30T14:00:47;99631.84;;;26.89;43.85
55022;BME280;68328;35.990;-86.756;2023-09-30T14:03:08;99636.98;;;27.03;43.57
55022;BME280;68328;35.990;-86.756;2023-09-30T14:05:33;99639.64;;;27.34;43.38
55022;BME280;68328;35.990;-86.756;2023-09-30T14:07:59;99644.31;;;27.61;43.24
55022;BME280;68328;35.990;-86.756;2023-09-30T14:10:24;99645.57;;;27.49;43.25
55022;BME280;68328;35.990;-86.756;2023-09-30T14:12:49;99648.93;;;27.79;42.84
55022;BME280;68328;35.990;-86.756;2023-09-30T14:15:15;99648.76;;;27.85;42.36
55022;BME280;68328;35.990;-86.756;2023-09-30T14:17:41;99647.65;;;28.20;43.12
55022;BME280;68328;35.990;-86.756;2023-09-30T14:20:07;99649.02;;;28.11;43.25
55022;BME280;68328;35.990;-86.756;2023-09-30T14:22:31;99648.03;;;28.36;42.30
55022;BME280;68328;35.990;-86.756;2023-09-30T14:24:58;99649.64;;;28.44;42.33
55022;BME280;68328;35.990;-86.756;2023-09-30T14:27:22;99650.75;;;28.39;42.53
55022;BME280;68328;35.990;-86.756;2023-09-30T14:29:49;99650.65;;;28.55;42.68
55022;BME280;68328;35.990;-86.756;2023-09-30T14:32:14;99652.31;;;28.64;42.50
55022;BME280;68328;35.990;-86.756;2023-09-30T14:34:39;99655.04;;;28.31;42.06
55022;BME280;68328;35.990;-86.756;2023-09-30T14:37:06;99654.36;;;28.46;41.28
55022;BME280;68328;35.990;-86.756;2023-09-30T14:39:30;99654.87;;;28.57;40.53
55022;BME280;68328;35.990;-86.756;2023-09-30T14:41:56;99653.93;;;28.45;40.68
55022;BME280;68328;35.990;-86.756;2023-09-30T14:44:20;99656.06;;;28.93;40.48
55022;BME280;68328;35.990;-86.756;2023-09-30T14:46:46;99657.03;;;28.96;40.45
55022;BME280;68328;35.990;-86.756;2023-09-30T14:49:11;99658.28;;;29.00;39.53
55022;BME280;68328;35.990;-86.756;2023-09-30T14:51:36;99661.38;;;28.69;40.33
55022;BME280;68328;35.990;-86.756;2023-09-30T14:54:03;99664.62;;;28.73;40.05
55022;BME280;68328;35.990;-86.756;2023-09-30T14:56:27;99665.06;;;28.90;39.83
55022;BME280;68328;35.990;-86.756;2023-09-30T14:58:52;99664.59;;;28.92;40.82
55022;BME280;68328;35.990;-86.756;2023-09-30T15:01:18;99663.95;;;28.93;39.78
55022;BME280;68328;35.990;-86.756;2023-09-30T15:03:44;99663.33;;;29.49;39.64
55022;BME280;68328;35.990;-86.756;2023-09-30T15:06:10;99659.91;;;29.43;40.17
55022;BME280;68328;35.990;-86.756;2023-09-30T15:08:34;99661.43;;;29.58;39.71
55022;BME280;68328;35.990;-86.756;2023-09-30T15:11:00;99664.12;;;29.62;39.88
55022;BME280;68328;35.990;-86.756;2023-09-30T15:13:26;99665.72;;;29.62;39.00
55022;BME280;68328;35.990;-86.756;2023-09-30T15:15:51;99664.91;;;30.04;39.42
55022;BME280;68328;35.990;-86.756;2023-09-30T15:18:17;99664.46;;;29.97;39.17
55022;BME280;68328;35.990;-86.756;2023-09-30T15:20:42;99661.92;;;29.54;40.01
55022;BME280;68328;35.990;-86.756;2023-09-30T15:23:07;99660.67;;;29.36;39.00
55022;BME280;68328;35.990;-86.756;2023-09-30T15:25:33;99664.87;;;30.35;39.26
55022;BME280;68328;35.990;-86.756;2023-09-30T15:27:59;99663.80;;;30.18;38.42
55022;BME280;68328;35.990;-86.756;2023-09-30T15:30:24;99662.27;;;30.49;38.10
55022;BME280;68328;35.990;-86.756;2023-09-30T15:32:49;99663.12;;;30.53;38.22
55022;BME280;68328;35.990;-86.756;2023-09-30T15:35:15;99660.62;;;30.68;38.32
55022;BME280;68328;35.990;-86.756;2023-09-30T15:37:40;99664.62;;;30.28;36.99
55022;BME280;68328;35.990;-86.756;2023-09-30T15:40:06;99661.78;;;30.46;37.28
55022;BME280;68328;35.990;-86.756;2023-09-30T15:42:32;99660.38;;;30.84;37.55
55022;BME280;68328;35.990;-86.756;2023-09-30T15:44:56;99663.27;;;30.50;36.65
55022;BME280;68328;35.990;-86.756;2023-09-30T15:49:48;99662.89;;;30.54;36.82
55022;BME280;68328;35.990;-86.756;2023-09-30T15:52:13;99659.95;;;30.80;36.88
55022;BME280;68328;35.990;-86.756;2023-09-30T15:54:40;99660.31;;;30.96;38.23
55022;BME280;68328;35.990;-86.756;2023-09-30T15:57:04;99655.55;;;31.38;37.13
55022;BME280;68328;35.990;-86.756;2023-09-30T15:59:30;99659.50;;;31.35;37.37
55022;BME280;68328;35.990;-86.756;2023-09-30T16:01:55;99660.09;;;30.90;36.55
55022;BME280;68328;35.990;-86.756;2023-09-30T16:04:21;99660.38;;;31.41;36.88
55022;BME280;68328;35.990;-86.756;2023-09-30T16:06:46;99660.05;;;31.48;37.05
55022;BME280;68328;35.990;-86.756;2023-09-30T16:09:11;99655.31;;;31.82;36.50
55022;BME280;68328;35.990;-86.756;2023-09-30T16:11:37;99652.24;;;31.40;36.05
55022;BME280;68328;35.990;-86.756;2023-09-30T16:14:02;99654.04;;;31.63;36.89
55022;BME280;68328;35.990;-86.756;2023-09-30T16:16:28;99653.74;;;31.51;35.87
55022;BME280;68328;35.990;-86.756;2023-09-30T16:18:53;99651.76;;;31.74;35.23
55022;BME280;68328;35.990;-86.756;2023-09-30T16:21:19;99652.05;;;31.53;34.46
55022;BME280;68328;35.990;-86.756;2023-09-30T16:23:44;99651.84;;;31.94;34.97
55022;BME280;68328;35.990;-86.756;2023-09-30T16:26:09;99648.08;;;31.64;35.51
55022;BME280;68328;35.990;-86.756;2023-09-30T16:28:36;99646.35;;;32.29;34.80
55022;BME280;68328;35.990;-86.756;2023-09-30T16:31:00;99646.96;;;32.03;34.87
55022;BME280;68328;35.990;-86.756;2023-09-30T16:33:26;99644.72;;;32.39;33.66
55022;BME280;68328;35.990;-86.756;2023-09-30T16:35:52;99638.43;;;32.51;32.29
55022;BME280;68328;35.990;-86.756;2023-09-30T16:38:17;99636.66;;;32.83;33.46
55022;BME280;68328;35.990;-86.756;2023-09-30T16:40:47;99633.42;;;32.73;33.41
55022;BME280;68328;35.990;-86.756;2023-09-30T16:43:09;99634.37;;;32.67;33.13
55022;BME280;68328;35.990;-86.756;2023-09-30T16:45:33;99632.98;;;32.93;31.90
55022;BME280;68328;35.990;-86.756;2023-09-30T16:47:58;99633.40;;;33.21;31.50
55022;BME280;68328;35.990;-86.756;2023-09-30T16:50:24;99632.01;;;32.95;33.73
55022;BME280;68328;35.990;-86.756;2023-09-30T16:52:50;99634.24;;;32.75;31.40
55022;BME280;68328;35.990;-86.756;2023-09-30T16:55:15;99637.08;;;33.35;32.00
55022;BME280;68328;35.990;-86.756;2023-09-30T16:57:41;99632.94;;;33.77;30.75
55022;BME280;68328;35.990;-86.756;2023-09-30T17:00:07;99634.53;;;33.77;30.41
55022;BME280;68328;35.990;-86.756;2023-09-30T17:02:31;99630.93;;;33.39;30.63
55022;BME280;68328;35.990;-86.756;2023-09-30T17:04:57;99634.63;;;33.88;31.41
55022;BME280;68328;35.990;-86.756;2023-09-30T17:07:23;99632.27;;;34.32;30.40
55022;BME280;68328;35.990;-86.756;2023-09-30T17:09:49;99629.59;;;33.86;29.39
55022;BME280;68328;35.990;-86.756;2023-09-30T17:12:14;99628.86;;;34.14;30.00
55022;BME280;68328;35.990;-86.756;2023-09-30T17:14:39;99628.20;;;34.33;29.51
55022;BME280;68328;35.990;-86.756;2023-09-30T17:17:04;99625.88;;;34.17;29.84
55022;BME280;68328;35.990;-86.756;2023-09-30T17:19:30;99624.61;;;34.33;30.62
55022;BME280;68328;35.990;-86.756;2023-09-30T17:21:56;99623.67;;;34.56;29.18
55022;BME280;68328;35.990;-86.756;2023-09-30T17:24:21;99622.14;;;34.24;30.32
55022;BME280;68328;35.990;-86.756;2023-09-30T17:26:47;99622.88;;;34.67;30.10
55022;BME280;68328;35.990;-86.756;2023-09-30T17:29:12;99620.15;;;34.44;29.85
55022;BME280;68328;35.990;-86.756;2023-09-30T17:31:38;99617.18;;;34.32;27.51
55022;BME280;68328;35.990;-86.756;2023-09-30T17:34:04;99613.71;;;34.12;29.79
55022;BME280;68328;35.990;-86.756;2023-09-30T17:36:29;99612.84;;;34.46;29.48
55022;BME280;68328;35.990;-86.756;2023-09-30T17:38:55;99610.30;;;34.85;29.23
55022;BME280;68328;35.990;-86.756;2023-09-30T17:41:20;99601.16;;;35.18;27.78
55022;BME280;68328;35.990;-86.756;2023-09-30T17:43:46;99598.16;;;34.91;26.75
55022;BME280;68328;35.990;-86.756;2023-09-30T17:46:14;99594.52;;;35.63;26.74
55022;BME280;68328;35.990;-86.756;2023-09-30T17:48:37;99587.78;;;35.18;26.37
55022;BME280;68328;35.990;-86.756;2023-09-30T17:51:03;99581.91;;;35.52;27.89
55022;BME280;68328;35.990;-86.756;2023-09-30T17:53:28;99576.58;;;35.12;27.21
55022;BME280;68328;35.990;-86.756;2023-09-30T17:55:53;99574.18;;;34.93;26.06
55022;BME280;68328;35.990;-86.756;2023-09-30T17:58:19;99571.83;;;35.00;27.89
55022;BME280;68328;35.990;-86.756;2023-09-30T18:00:48;99571.11;;;35.13;26.18
55022;BME280;68328;35.990;-86.756;2023-09-30T18:03:10;99574.61;;;34.83;26.46
55022;BME280;68328;35.990;-86.756;2023-09-30T18:05:35;99568.80;;;35.05;25.11
55022;BME280;68328;35.990;-86.756;2023-09-30T18:08:00;99564.51;;;34.89;24.87
55022;BME280;68328;35.990;-86.756;2023-09-30T18:10:26;99564.39;;;34.97;26.51
55022;BME280;68328;35.990;-86.756;2023-09-30T18:12:52;99563.03;;;35.07;25.85
55022;BME280;68328;35.990;-86.756;2023-09-30T18:15:16;99564.08;;;34.94;24.96
55022;BME280;68328;35.990;-86.756;2023-09-30T18:17:42;99566.39;;;35.38;26.09
55022;BME280;68328;35.990;-86.756;2023-09-30T18:20:08;99563.43;;;35.89;24.77
55022;BME280;68328;35.990;-86.756;2023-09-30T18:22:32;99554.97;;;35.72;24.84
55022;BME280;68328;35.990;-86.756;2023-09-30T18:24:58;99551.31;;;36.20;24.82
55022;BME280;68328;35.990;-86.756;2023-09-30T18:27:23;99550.75;;;36.20;24.28
55022;BME280;68328;35.990;-86.756;2023-09-30T18:29:49;99543.90;;;36.10;21.89
55022;BME280;68328;35.990;-86.756;2023-09-30T18:32:14;99542.83;;;35.82;23.53
55022;BME280;68328;35.990;-86.756;2023-09-30T18:34:39;99543.42;;;35.75;25.29
55022;BME280;68328;35.990;-86.756;2023-09-30T18:37:05;99537.99;;;35.95;23.50
55022;BME280;68328;35.990;-86.756;2023-09-30T18:39:31;99534.57;;;36.78;23.89
55022;BME280;68328;35.990;-86.756;2023-09-30T18:41:57;99527.12;;;36.62;22.34
55022;BME280;68328;35.990;-86.756;2023-09-30T18:44:22;99520.80;;;36.52;22.32
55022;BME280;68328;35.990;-86.756;2023-09-30T18:46:47;99521.73;;;36.41;22.85
55022;BME280;68328;35.990;-86.756;2023-09-30T18:49:13;99521.70;;;37.02;22.89
55022;BME280;68328;35.990;-86.756;2023-09-30T18:51:38;99523.12;;;36.97;21.10
55022;BME280;68328;35.990;-86.756;2023-09-30T18:54:03;99523.33;;;37.16;21.07
55022;BME280;68328;35.990;-86.756;2023-09-30T18:56:28;99527.69;;;37.44;20.33
55022;BME280;68328;35.990;-86.756;2023-09-30T18:58:53;99523.03;;;37.26;21.27
55022;BME280;68328;35.990;-86.756;2023-09-30T19:01:19;99524.26;;;37.46;21.86
55022;BME280;68328;35.990;-86.756;2023-09-30T19:03:44;99515.41;;;37.07;21.78
55022;BME280;68328;35.990;-86.756;2023-09-30T19:06:09;99513.78;;;37.06;22.15
55022;BME280;68328;35.990;-86.756;2023-09-30T19:08:35;99511.91;;;37.47;22.76
55022;BME280;68328;35.990;-86.756;2023-09-30T19:11:01;99510.66;;;37.25;21.33
55022;BME280;68328;35.990;-86.756;2023-09-30T19:13:26;99510.28;;;36.93;22.08
55022;BME280;68328;35.990;-86.756;2023-09-30T19:15:50;99504.50;;;36.90;21.92
55022;BME280;68328;35.990;-86.756;2023-09-30T19:18:16;99503.99;;;37.23;22.18
55022;BME280;68328;35.990;-86.756;2023-09-30T19:20:44;99501.10;;;37.21;21.35
55022;BME280;68328;35.990;-86.756;2023-09-30T19:23:06;99500.82;;;37.17;20.96
55022;BME280;68328;35.990;-86.756;2023-09-30T19:25:32;99500.24;;;36.62;22.51
55022;BME280;68328;35.990;-86.756;2023-09-30T19:27:57;99503.91;;;36.49;22.92
55022;BME280;68328;35.990;-86.756;2023-09-30T19:30:22;99499.16;;;36.42;21.84
55022;BME280;68328;35.990;-86.756;2023-09-30T19:32:49;99497.83;;;36.57;21.67
55022;BME280;68328;35.990;-86.756;2023-09-30T19:35:14;99495.83;;;36.64;22.17
55022;BME280;68328;35.990;-86.756;2023-09-30T19:37:38;99499.43;;;36.33;22.82
55022;BME280;68328;35.990;-86.756;2023-09-30T19:40:06;99494.49;;;36.75;21.53
55022;BME280;68328;35.990;-86.756;2023-09-30T19:42:29;99491.84;;;36.91;22.20
55022;BME280;68328;35.990;-86.756;2023-09-30T19:44:54;99486.30;;;36.92;22.35
55022;BME280;68328;35.990;-86.756;2023-09-30T19:47:20;99481.49;;;36.97;21.73
55022;BME280;68328;35.990;-86.756;2023-09-30T19:49:45;99484.25;;;36.42;22.78
55022;BME280;68328;35.990;-86.756;2023-09-30T19:52:12;99482.10;;;36.18;22.90
55022;BME280;68328;35.990;-86.756;2023-09-30T19:54:36;99479.80;;;36.37;23.43
55022;BME280;68328;35.990;-86.756;2023-09-30T19:57:02;99477.28;;;36.38;22.63
55022;BME280;68328;35.990;-86.756;2023-09-30T19:59:27;99474.73;;;36.27;21.88
55022;BME280;68328;35.990;-86.756;2023-09-30T20:01:53;99472.46;;;36.38;22.73
55022;BME280;68328;35.990;-86.756;2023-09-30T20:04:17;99468.82;;;36.04;22.44
55022;BME280;68328;35.990;-86.756;2023-09-30T20:06:42;99467.95;;;36.18;21.73
55022;BME280;68328;35.990;-86.756;2023-09-30T20:09:08;99471.29;;;36.08;22.40
55022;BME280;68328;35.990;-86.756;2023-09-30T20:11:33;99474.33;;;35.91;23.81
55022;BME280;68328;35.990;-86.756;2023-09-30T20:14:00;99470.22;;;35.76;23.63
55022;BME280;68328;35.990;-86.756;2023-09-30T20:16:25;99466.76;;;35.74;22.49
55022;BME280;68328;35.990;-86.756;2023-09-30T20:18:50;99468.24;;;35.82;23.55
55022;BME280;68328;35.990;-86.756;2023-09-30T20:21:15;99465.02;;;35.92;23.87
55022;BME280;68328;35.990;-86.756;2023-09-30T20:23:40;99462.66;;;35.80;23.10
55022;BME280;68328;35.990;-86.756;2023-09-30T20:26:06;99458.19;;;35.83;23.99
55022;BME280;68328;35.990;-86.756;2023-09-30T20:28:31;99450.14;;;35.95;23.02
55022;BME280;68328;35.990;-86.756;2023-09-30T20:30:57;99453.58;;;35.89;23.21
55022;BME280;68328;35.990;-86.756;2023-09-30T20:33:22;99451.38;;;35.77;22.66
55022;BME280;68328;35.990;-86.756;2023-09-30T20:35:48;99451.59;;;35.57;23.29
55022;BME280;68328;35.990;-86.756;2023-09-30T20:38:13;99450.42;;;35.41;23.01
55022;BME280;68328;35.990;-86.756;2023-09-30T20:40:39;99448.72;;;35.39;23.52
55022;BME280;68328;35.990;-86.756;2023-09-30T20:43:04;99452.88;;;35.19;24.78
55022;BME280;68328;35.990;-86.756;2023-09-30T20:45:32;99453.11;;;35.36;23.77
55022;BME280;68328;35.990;-86.756;2023-09-30T20:47:55;99456.11;;;35.39;23.92
55022;BME280;68328;35.990;-86.756;2023-09-30T20:50:20;99455.17;;;35.47;23.19
55022;BME280;68328;35.990;-86.756;2023-09-30T20:52:49;99454.89;;;35.24;23.69
55022;BME280;68328;35.990;-86.756;2023-09-30T20:55:11;99453.59;;;35.14;24.33
55022;BME280;68328;35.990;-86.756;2023-09-30T20:57:36;99448.36;;;35.37;25.32
55022;BME280;68328;35.990;-86.756;2023-09-30T21:00:02;99445.24;;;35.64;23.83
55022;BME280;68328;35.990;-86.756;2023-09-30T21:02:27;99442.64;;;35.19;24.15
55022;BME280;68328;35.990;-86.756;2023-09-30T21:04:52;99440.82;;;35.26;24.45
55022;BME280;68328;35.990;-86.756;2023-09-30T21:07:17;99440.77;;;34.63;24.40
55022;BME280;68328;35.990;-86.756;2023-09-30T21:09:43;99436.68;;;34.45;23.95
55022;BME280;68328;35.990;-86.756;2023-09-30T21:12:08;99436.31;;;34.83;24.57
55022;BME280;68328;35.990;-86.756;2023-09-30T21:14:34;99430.70;;;34.62;24.21
55022;BME280;68328;35.990;-86.756;2023-09-30T21:17:00;99426.98;;;35.02;23.82
55022;BME280;68328;35.990;-86.756;2023-09-30T21:19:25;99425.12;;;35.14;23.47
55022;BME280;68328;35.990;-86.756;2023-09-30T21:21:51;99427.35;;;34.85;23.45
55022;BME280;68328;35.990;-86.756;2023-09-30T21:24:17;99431.46;;;34.73;24.38
55022;BME280;68328;35.990;-86.756;2023-09-30T21:26:42;99431.18;;;34.82;23.97
55022;BME280;68328;35.990;-86.756;2023-09-30T21:29:08;99427.62;;;34.70;23.66
55022;BME280;68328;35.990;-86.756;2023-09-30T21:31:34;99428.84;;;34.50;24.51
55022;BME280;68328;35.990;-86.756;2023-09-30T21:33:58;99428.96;;;34.10;25.02
55022;BME280;68328;35.990;-86.756;2023-09-30T21:36:23;99429.65;;;34.17;25.13
55022;BME280;68328;35.990;-86.756;2023-09-30T21:38:49;99433.52;;;34.69;24.53
55022;BME280;68328;35.990;-86.756;2023-09-30T21:41:15;99432.87;;;34.77;24.39
55022;BME280;68328;35.990;-86.756;2023-09-30T21:43:39;99431.30;;;34.84;24.85
55022;BME280;68328;35.990;-86.756;2023-09-30T21:46:05;99430.25;;;34.56;24.88
55022;BME280;68328;35.990;-86.756;2023-09-30T21:48:30;99428.55;;;34.80;24.71
55022;BME280;68328;35.990;-86.756;2023-09-30T21:50:56;99427.41;;;34.82;26.76
55022;BME280;68328;35.990;-86.756;2023-09-30T21:53:22;99425.73;;;34.82;26.95
55022;BME280;68328;35.990;-86.756;2023-09-30T21:55:46;99424.82;;;34.83;25.78
55022;BME280;68328;35.990;-86.756;2023-09-30T21:58:11;99420.10;;;34.39;25.71
55022;BME280;68328;35.990;-86.756;2023-09-30T22:00:37;99418.39;;;34.19;25.69
55022;BME280;68328;35.990;-86.756;2023-09-30T22:03:02;99423.92;;;34.70;25.38
55022;BME280;68328;35.990;-86.756;2023-09-30T22:05:28;99423.98;;;34.74;25.45
55022;BME280;68328;35.990;-86.756;2023-09-30T22:07:53;99425.02;;;34.71;25.14
55022;BME280;68328;35.990;-86.756;2023-09-30T22:10:20;99424.31;;;34.39;25.08
55022;BME280;68328;35.990;-86.756;2023-09-30T22:12:44;99422.92;;;34.98;26.13
55022;BME280;68328;35.990;-86.756;2023-09-30T22:15:11;99428.59;;;34.95;24.79
55022;BME280;68328;35.990;-86.756;2023-09-30T22:17:35;99430.98;;;34.70;24.73
55022;BME280;68328;35.990;-86.756;2023-09-30T22:20:01;99435.16;;;34.83;25.62
55022;BME280;68328;35.990;-86.756;2023-09-30T22:22:26;99437.54;;;34.47;25.05
55022;BME280;68328;35.990;-86.756;2023-09-30T22:24:52;99434.88;;;34.62;25.01
55022;BME280;68328;35.990;-86.756;2023-09-30T22:27:17;99429.30;;;34.79;24.50
55022;BME280;68328;35.990;-86.756;2023-09-30T22:29:42;99427.20;;;34.54;24.55
55022;BME280;68328;35.990;-86.756;2023-09-30T22:32:07;99424.67;;;34.65;25.88
55022;BME280;68328;35.990;-86.756;2023-09-30T22:34:33;99423.22;;;34.60;25.45
55022;BME280;68328;35.990;-86.756;2023-09-30T22:36:59;99425.03;;;34.72;24.67
55022;BME280;68328;35.990;-86.756;2023-09-30T22:39:23;99424.44;;;34.58;26.09
55022;BME280;68328;35.990;-86.756;2023-09-30T22:41:48;99425.17;;;34.55;26.77
55022;BME280;68328;35.990;-86.756;2023-09-30T22:44:14;99423.12;;;34.36;26.19
55022;BME280;68328;35.990;-86.756;2023-09-30T22:46:39;99422.74;;;34.05;26.41
55022;BME280;68328;35.990;-86.756;2023-09-30T22:49:05;99421.72;;;34.16;26.08